^^
MeteoGriva-Weather Station Historical Data
Daily Summary for October 21, 2020 Units:  English    Metric   Both
Daily Weekly Monthly Yearly Custom
  High: Low: Average:
Temperature: 68.4 °F 51.8 °F 58.6 °F
Dew Point: 55.2 °F 46.9 °F 50.7 °F
Humidity: 86.4% 60.8% 75%
Wind Speed: 1.7mph 0mph 0.1mph
Wind Gust: 7.6mph - -
Wind- - SE
Pressure: 30.3 in 30.2 in -
Precipitation: 0 in    
Historical Graphs
 
 
Tabular Data for October 21, 2020
Time Temperature Dew Point Pressure Wind Wind Speed Wind Gust Humidity Rainfall Rate (Hourly) solar
00:04 53.1 °F 48.4 °F 30.3 in Calm     84.2% 0 in 0 W/m2
00:09 53.1 °F 48.6 °F 30.3 in Calm     84.9% 0 in 0 W/m2
00:14 53.1 °F 48.6 °F 30.3 in Calm     84.7% 0 in 0 W/m2
00:19 53.4 °F 48.7 °F 30.3 in Calm     84.1% 0 in 0 W/m2
00:24 53.4 °F 48.4 °F 30.3 in Calm   2.5 mph 82.8% 0 in 0 W/m2
00:29 53.6 °F 48.4 °F 30.3 in Calm     82.6% 0 in 0 W/m2
00:34 53.6 °F 48.4 °F 30.3 in Calm     82.4% 0 in 0 W/m2
00:39 54 °F 48.7 °F 30.3 in Calm     82.8% 0 in 0 W/m2
00:44 54 °F 49.1 °F 30.3 in Calm     83.7% 0 in 0 W/m2
00:49 54.1 °F 48.6 °F 30.3 in Calm     81.6% 0 in 0 W/m2
00:54 54.1 °F 48.7 °F 30.3 in Calm     81.8% 0 in 0 W/m2
00:59 54.3 °F 49.3 °F 30.3 in Calm     82.8% 0 in 0 W/m2
01:04 54.3 °F 49.3 °F 30.3 in Calm     83% 0 in 0 W/m2
01:09 54.3 °F 49.3 °F 30.3 in Calm     83% 0 in 0 W/m2
01:14 54.3 °F 49.3 °F 30.3 in Calm     82.6% 0 in 0 W/m2
01:19 54.5 °F 49.3 °F 30.3 in Calm     82.6% 0 in 0 W/m2
01:24 54.5 °F 49.5 °F 30.3 in Calm     82.9% 0 in 0 W/m2
01:29 54.3 °F 49.3 °F 30.3 in Calm     83% 0 in 0 W/m2
01:34 54.3 °F 49.1 °F 30.3 in Calm     82.6% 0 in 0 W/m2
01:39 54.5 °F 49.1 °F 30.3 in Calm     82.3% 0 in 0 W/m2
01:44 54.5 °F 49.1 °F 30.3 in Calm     82% 0 in 0 W/m2
01:49 54.5 °F 49.1 °F 30.3 in Calm     82% 0 in 0 W/m2
01:54 54.5 °F 48.9 °F 30.3 in Calm     81.3% 0 in 0 W/m2
01:59 54 °F 48.7 °F 30.3 in Calm     82.6% 0 in 0 W/m2
02:04 53.8 °F 48.2 °F 30.3 in Calm     81.4% 0 in 0 W/m2
02:09 54 °F 48.2 °F 30.3 in Calm     81.4% 0 in 0 W/m2
02:14 54 °F 48.4 °F 30.3 in Calm     81.3% 0 in 0 W/m2
02:19 54.3 °F 48.6 °F 30.3 in Calm     81% 0 in 0 W/m2
02:24 54.3 °F 49.3 °F 30.3 in Calm     83% 0 in 0 W/m2
02:29 54.1 °F 49.1 °F 30.3 in Calm     83.1% 0 in 0 W/m2
02:34 54 °F 48.9 °F 30.3 in Calm     83% 0 in 0 W/m2
02:39 53.4 °F 48.7 °F 30.3 in Calm     83.7% 0 in 0 W/m2
02:44 53.2 °F 48.4 °F 30.3 in Calm     83.3% 0 in 0 W/m2
02:49 53.2 °F 48.6 °F 30.3 in Calm     83.9% 0 in 0 W/m2
02:54 53.1 °F 48.4 °F 30.3 in Calm     83.8% 0 in 0 W/m2
02:59 53.2 °F 48.4 °F 30.3 in Calm     83.5% 0 in 0 W/m2
03:04 53.2 °F 48.2 °F 30.3 in Calm     83% 0 in 0 W/m2
03:09 53.1 °F 48.2 °F 30.3 in Calm     83.3% 0 in 0 W/m2
03:14 53.1 °F 48.4 °F 30.3 in Calm     83.9% 0 in 0 W/m2
03:19 53.1 °F 48.2 °F 30.3 in Calm     83.6% 0 in 0 W/m2
03:24 53.1 °F 48.2 °F 30.3 in Calm     83.3% 0 in 0 W/m2
03:29 53.1 °F 48.4 °F 30.3 in Calm     84% 0 in 0 W/m2
03:34 52.9 °F 48.4 °F 30.3 in Calm     84.2% 0 in 0 W/m2
03:39 52.7 °F 48 °F 30.3 in Calm     84% 0 in 0 W/m2
03:44 52.3 °F 47.7 °F 30.3 in Calm     83.9% 0 in 0 W/m2
03:49 52.5 °F 47.5 °F 30.3 in Calm     83% 0 in 0 W/m2
03:54 52.5 °F 47.5 °F 30.3 in Calm     83% 0 in 0 W/m2
03:59 52.7 °F 47.7 °F 30.3 in Calm     83% 0 in 0 W/m2
04:04 52.9 °F 47.5 °F 30.3 in Calm     82.1% 0 in 0 W/m2
04:09 52.9 °F 47.5 °F 30.3 in Calm     81.6% 0 in 0 W/m2
04:14 53.1 °F 47.5 °F 30.3 in Calm     81.6% 0 in 0 W/m2
04:19 53.1 °F 48 °F 30.3 in West 0.1 mph 2.5 mph 83.1% 0 in 0 W/m2
04:24 53.1 °F 47.8 °F 30.3 in Calm     82.2% 0 in 0 W/m2
04:29 53.2 °F 47.7 °F 30.3 in Calm     81.7% 0 in 0 W/m2
04:34 53.2 °F 47.8 °F 30.3 in Calm     81.9% 0 in 0 W/m2
04:39 53.1 °F 48 °F 30.3 in Calm     83% 0 in 0 W/m2
04:44 52.9 °F 47.8 °F 30.3 in Calm     83.2% 0 in 0 W/m2
04:49 52.9 °F 48 °F 30.3 in Calm     83.6% 0 in 0 W/m2
04:54 52.9 °F 47.8 °F 30.3 in Calm     83% 0 in 0 W/m2
04:59 53.1 °F 47.7 °F 30.3 in Calm     82% 0 in 0 W/m2
05:04 53.1 °F 47.8 °F 30.3 in Calm     82.3% 0 in 0 W/m2
05:09 53.1 °F 48 °F 30.3 in Calm     83% 0 in 0 W/m2
05:14 53.1 °F 48 °F 30.3 in Calm     83% 0 in 0 W/m2
05:19 53.2 °F 47.8 °F 30.3 in Calm     82.2% 0 in 0 W/m2
05:24 53.2 °F 48.2 °F 30.3 in Calm     82.9% 0 in 0 W/m2
05:29 53.2 °F 48.2 °F 30.3 in Calm     82.8% 0 in 0 W/m2
05:34 53.2 °F 47.8 °F 30.3 in Calm     82.3% 0 in 0 W/m2
05:39 53.1 °F 48 °F 30.3 in Calm     82.8% 0 in 0 W/m2
05:44 52.9 °F 47.7 °F 30.3 in Calm     82.7% 0 in 0 W/m2
05:49 52.9 °F 47.8 °F 30.3 in Calm     83% 0 in 0 W/m2
05:54 52.9 °F 47.7 °F 30.3 in Calm     82.7% 0 in 0 W/m2
05:59 52.9 °F 47.8 °F 30.3 in Calm     83% 0 in 0 W/m2
06:04 52.9 °F 47.8 °F 30.3 in Calm     82.9% 0 in 0 W/m2
06:09 52.9 °F 47.5 °F 30.3 in Calm     82% 0 in 0 W/m2
06:14 52.9 °F 47.7 °F 30.3 in Calm     82.8% 0 in 0 W/m2
06:19 52.7 °F 48.2 °F 30.3 in Calm     84.4% 0 in 0 W/m2
06:24 52.2 °F 47.7 °F 30.3 in Calm     84.6% 0 in 0 W/m2
06:29 52.2 °F 46.9 °F 30.3 in Calm     82.6% 0 in 0 W/m2
06:34 52.3 °F 47.5 °F 30.3 in Calm     83.7% 0 in 0 W/m2
06:39 52.3 °F 47.8 °F 30.3 in Calm     84.4% 0 in 0 W/m2
06:44 52.5 °F 47.7 °F 30.3 in Calm     83.7% 0 in 0 W/m2
06:49 52.5 °F 47.8 °F 30.3 in Calm     84% 0 in 0 W/m2
06:54 52.5 °F 47.8 °F 30.3 in Calm     84.1% 0 in 0 W/m2
06:59 52.5 °F 48 °F 30.3 in Calm     84.7% 0 in 0 W/m2
07:04 52.3 °F 47.8 °F 30.3 in Calm     84.7% 0 in 0 W/m2
07:09 52.3 °F 47.7 °F 30.3 in Calm     83.7% 0 in 0 W/m2
07:14 52.3 °F 47.7 °F 30.3 in Calm     84% 0 in 0 W/m2
07:19 52.5 °F 47.8 °F 30.3 in Calm     84% 0 in 0 W/m2
07:24 52.5 °F 48 °F 30.3 in Calm     84.3% 0 in 0 W/m2
07:29 52.5 °F 48 °F 30.3 in Calm     84.4% 0 in 0 W/m2
07:34 52.5 °F 48.2 °F 30.3 in Calm     84.9% 0 in 0 W/m2
07:39 52.3 °F 48.4 °F 30.2 in Calm     86.2% 0 in 0 W/m2
07:44 51.8 °F 47.7 °F 30.3 in Calm     86.4% 0 in 0 W/m2
07:49 51.8 °F 47.7 °F 30.3 in Calm     86% 0 in 0 W/m2
07:54 51.8 °F 47.5 °F 30.3 in Calm     85% 0 in 4 W/m2
07:59 51.8 °F 47.5 °F 30.3 in Calm     84.8% 0 in 8 W/m2
08:04 52 °F 47.7 °F 30.3 in Calm     85.1% 0 in 14 W/m2
08:09 52 °F 47.3 °F 30.3 in Calm     83.7% 0 in 20 W/m2
08:14 52.3 °F 46.9 °F 30.3 in Calm     82.1% 0 in 26 W/m2
08:19 52.9 °F 47.3 °F 30.3 in Calm     81.6% 0 in 32 W/m2
08:24 54.5 °F 48.6 °F 30.3 in Calm     80.3% 0 in 38 W/m2
08:29 54.7 °F 48 °F 30.3 in Calm     78.3% 0 in 43 W/m2
08:34 54.9 °F 48 °F 30.3 in Calm     77.1% 0 in 48 W/m2
08:39 55.6 °F 47.3 °F 30.3 in Calm     73.4% 0 in 53 W/m2
08:44 59 °F 50 °F 30.3 in Calm     72.2% 0 in 59 W/m2
08:49 59.2 °F 50.2 °F 30.3 in Calm     71.9% 0 in 63 W/m2
08:54 59.5 °F 49.8 °F 30.3 in Calm     70% 0 in 67 W/m2
08:59 59.9 °F 50.4 °F 30.3 in Calm     70.7% 0 in 85 W/m2
09:04 61.5 °F 51.4 °F 30.3 in Calm     69.4% 0 in 102 W/m2
09:09 61.5 °F 52 °F 30.3 in Calm     71% 0 in 81 W/m2
09:14 61.3 °F 52.2 °F 30.3 in Calm     71.7% 0 in 80 W/m2
09:19 61.3 °F 51.6 °F 30.3 in Calm     70.4% 0 in 82 W/m2
09:24 62.1 °F 51.6 °F 30.3 in Calm     68.8% 0 in 83 W/m2
09:29 62.1 °F 51.4 °F 30.3 in Calm     67.9% 0 in 85 W/m2
09:34 62.2 °F 51.4 °F 30.3 in Calm     67.7% 0 in 86 W/m2
09:39 62.4 °F 51.4 °F 30.3 in Calm     67.3% 0 in 88 W/m2
09:44 61.2 °F 51.1 °F 30.3 in ENE 0.1 mph 4.9 mph 69.7% 0 in 88 W/m2
09:49 61 °F 51.4 °F 30.3 in Calm     70.9% 0 in 89 W/m2
09:54 61 °F 51.4 °F 30.3 in Calm   2.5 mph 70.8% 0 in 90 W/m2
09:59 61 °F 51.3 °F 30.3 in Calm   2.5 mph 70.7% 0 in 91 W/m2
10:04 62.1 °F 52.7 °F 30.3 in ESE 0.2 mph 2.5 mph 71.4% 0 in 92 W/m2
10:09 62.2 °F 52.7 °F 30.3 in Calm   2.5 mph 71.2% 0 in 94 W/m2
10:14 62.1 °F 52.9 °F 30.3 in Calm     72% 0 in 95 W/m2
10:19 61.9 °F 52.5 °F 30.3 in Calm     71.6% 0 in 98 W/m2
10:24 60.1 °F 51.3 °F 30.3 in Calm     72.8% 0 in 101 W/m2
10:29 59.9 °F 50.2 °F 30.3 in Calm     69.9% 0 in 104 W/m2
10:34 60.4 °F 50 °F 30.3 in Calm     68.6% 0 in 108 W/m2
10:39 60.8 °F 51.6 °F 30.3 in East 0.1 mph 4.9 mph 71.6% 0 in 111 W/m2
10:44 60.4 °F 51.6 °F 30.3 in NE 0.1 mph 2.5 mph 72.6% 0 in 114 W/m2
10:49 60.3 °F 51.4 °F 30.3 in NE 0.1 mph 4.9 mph 72.6% 0 in 119 W/m2
10:54 60.3 °F 51.8 °F 30.3 in Calm     73.4% 0 in 123 W/m2
10:59 60.3 °F 51.6 °F 30.3 in Calm     73.1% 0 in 129 W/m2
11:04 61.2 °F 52.2 °F 30.3 in Calm     72% 0 in 134 W/m2
11:09 61.3 °F 52.3 °F 30.3 in Calm     72.3% 0 in 140 W/m2
11:14 61.7 °F 51.8 °F 30.3 in ESE 0.1 mph 4.9 mph 70.2% 0 in 146 W/m2
11:19 62.1 °F 52 °F 30.3 in SE 0.1 mph 2.5 mph 69.6% 0 in 152 W/m2
11:24 63 °F 53.1 °F 30.3 in Calm   2.5 mph 70.2% 0 in 158 W/m2
11:29 63.1 °F 53.2 °F 30.3 in Calm   2.5 mph 69.7% 0 in 165 W/m2
11:34 63.3 °F 53.4 °F 30.3 in SSW 0.1 mph 2.5 mph 69.8% 0 in 171 W/m2
11:39 63.5 °F 53.6 °F 30.3 in SSE 0.5 mph 2.5 mph 70% 0 in 177 W/m2
11:44 63.1 °F 53.4 °F 30.3 in SSE 0.7 mph 4.9 mph 70.7% 0 in 184 W/m2
11:49 62.8 °F 53.2 °F 30.3 in ESE 0.4 mph 4.9 mph 71.1% 0 in 192 W/m2
11:54 62.8 °F 52.9 °F 30.3 in SE 0.3 mph 4.9 mph 70.1% 0 in 197 W/m2
11:59 62.6 °F 53.1 °F 30.3 in Calm   2.5 mph 71% 0 in 207 W/m2
12:04 63.1 °F 53.2 °F 30.3 in NE 0.2 mph 4.9 mph 70.2% 0 in 213 W/m2
12:09 63.1 °F 53.8 °F 30.3 in NNE 0.2 mph 4.9 mph 71.1% 0 in 221 W/m2
12:14 63 °F 53.2 °F 30.3 in Calm     70.2% 0 in 233 W/m2
12:19 63.1 °F 52.3 °F 30.3 in East 0.6 mph 4.9 mph 67.8% 0 in 242 W/m2
12:24 63.7 °F 52.5 °F 30.3 in SSE 0.2 mph 4.9 mph 66.6% 0 in 251 W/m2
12:29 64 °F 53.1 °F 30.3 in ENE 0.4 mph 4.9 mph 67.6% 0 in 261 W/m2
12:34 63.9 °F 52.7 °F 30.3 in Calm     67.1% 0 in 271 W/m2
12:39 63.9 °F 52.5 °F 30.3 in ESE 0.9 mph 4.9 mph 66.5% 0 in 281 W/m2
12:44 63 °F 52.3 °F 30.3 in NNE 1.1 mph 4.9 mph 68.4% 0 in 289 W/m2
12:49 62.1 °F 52 °F 30.3 in SSE 0.3 mph 4.9 mph 69.2% 0 in 300 W/m2
12:54 62.2 °F 51.8 °F 30.3 in East 0.2 mph 4.9 mph 68.1% 0 in 313 W/m2
12:59 62.6 °F 51.6 °F 30.3 in SE 0.6 mph 4.9 mph 67.2% 0 in 323 W/m2
13:04 64 °F 52.7 °F 30.2 in Calm   4.9 mph 66.8% 0 in 332 W/m2
13:09 64.9 °F 53.1 °F 30.2 in SSE 0.9 mph 4.9 mph 65.4% 0 in 349 W/m2
13:14 64.9 °F 53.6 °F 30.2 in ESE 0.4 mph 4.9 mph 66.6% 0 in 356 W/m2
13:19 64.8 °F 53.1 °F 30.2 in SE 0.4 mph 4.9 mph 65.8% 0 in 363 W/m2
13:24 64.6 °F 53.2 °F 30.2 in ENE 0.5 mph 4.9 mph 66.6% 0 in 366 W/m2
13:29 64.2 °F 52.3 °F 30.2 in NE 0.2 mph 4.9 mph 65.2% 0 in 361 W/m2
13:34 64.2 °F 52.9 °F 30.2 in ENE 0.2 mph 4.9 mph 66.3% 0 in 369 W/m2
13:39 64.2 °F 52 °F 30.2 in ESE 0.6 mph 4.9 mph 64.4% 0 in 391 W/m2
13:44 64.4 °F 51.8 °F 30.2 in SE 0.1 mph 4.9 mph 63.6% 0 in 392 W/m2
13:49 64.6 °F 52.3 °F 30.2 in NE 0.5 mph 4.9 mph 64.6% 0 in 388 W/m2
13:54 64.4 °F 52.7 °F 30.2 in ENE 0.2 mph 4.9 mph 65.6% 0 in 392 W/m2
13:59 64.2 °F 51.8 °F 30.2 in ENE 0.2 mph 4.9 mph 63.8% 0 in 394 W/m2
14:04 65.3 °F 52.2 °F 30.2 in Calm   4.9 mph 62.6% 0 in 396 W/m2
14:09 66.4 °F 52.9 °F 30.2 in SE 1.3 mph 4.9 mph 61.9% 0 in 404 W/m2
14:14 66.4 °F 52.9 °F 30.2 in SE 0.1 mph 4.9 mph 62% 0 in 399 W/m2
14:19 66 °F 53.2 °F 30.2 in North 0.3 mph 2.5 mph 63.2% 0 in 405 W/m2
14:24 64.9 °F 52.9 °F 30.2 in ENE 0.1 mph 4.9 mph 64.9% 0 in 395 W/m2
14:29 63.9 °F 51.8 °F 30.2 in NE 0.4 mph 4.9 mph 64.9% 0 in 403 W/m2
14:34 63.9 °F 52.5 °F 30.2 in NE 1.2 mph 7.6 mph 66.4% 0 in 402 W/m2
14:39 63.9 °F 52.2 °F 30.2 in Calm   4.9 mph 65.8% 0 in 402 W/m2
14:49 64 °F 52.5 °F 30.2 in NNW 0.2 mph 2.5 mph 66.1% 0 in 404 W/m2
14:54 64.2 °F 52 °F 30.2 in SSE 0.2 mph 7.6 mph 64.2% 0 in 402 W/m2
14:59 64.6 °F 51.6 °F 30.2 in Calm   7.6 mph 63% 0 in 400 W/m2
15:04 65.7 °F 52.5 °F 30.2 in SSE 0.6 mph 4.9 mph 62.8% 0 in 399 W/m2
15:09 66.9 °F 53.4 °F 30.2 in SSE 0.6 mph 4.9 mph 62.2% 0 in 396 W/m2
15:14 66.9 °F 53.8 °F 30.2 in SSE 1.7 mph 7.6 mph 62.9% 0 in 393 W/m2
15:19 66.9 °F 54 °F 30.2 in Calm   2.5 mph 63% 0 in 387 W/m2
15:24 67.5 °F 54.1 °F 30.2 in SSE 0.6 mph 4.9 mph 62.2% 0 in 386 W/m2
15:29 68 °F 54.5 °F 30.2 in Calm   4.9 mph 62% 0 in 383 W/m2
15:34 68 °F 54.7 °F 30.2 in SE 0.2 mph 4.9 mph 62.6% 0 in 381 W/m2
15:38 67.8 °F 54.7 °F 30.2 in Calm   4.9 mph 62.9% 0 in 376 W/m2
15:49 66.7 °F 53.4 °F 30.2 in Calm     62.3% 0 in 369 W/m2
15:54 66.9 °F 53.8 °F 30.2 in Calm   2.5 mph 62.7% 0 in 365 W/m2
15:59 67.3 °F 54.3 °F 30.2 in Calm   4.9 mph 63% 0 in 360 W/m2
16:04 67.5 °F 54.3 °F 30.2 in South 0.4 mph 4.9 mph 62.8% 0 in 357 W/m2
16:09 67.5 °F 54.3 °F 30.2 in SSE 0.6 mph 7.6 mph 62.8% 0 in 348 W/m2
16:14 67.6 °F 53.4 °F 30.2 in Calm   7.6 mph 60.8% 0 in 340 W/m2
16:19 68 °F 54 °F 30.2 in SSE 0.1 mph 2.5 mph 60.9% 0 in 146 W/m2
16:24 68.2 °F 54.7 °F 30.2 in South 0.2 mph 4.9 mph 62% 0 in 301 W/m2
16:29 68.4 °F 55 °F 30.2 in SSE 0.4 mph 4.9 mph 62.7% 0 in 316 W/m2
16:34 68.2 °F 55 °F 30.2 in Calm     63% 0 in 313 W/m2
16:39 67.8 °F 55 °F 30.2 in SE 0.1 mph 2.5 mph 63.7% 0 in 307 W/m2
16:44 67.5 °F 54.9 °F 30.2 in Calm   2.5 mph 63.9% 0 in 299 W/m2
16:48 67.3 °F 54.1 °F 30.2 in Calm     63% 0 in 139 W/m2
16:54 67.1 °F 55 °F 30.2 in Calm     65.1% 0 in 85 W/m2
16:59 66.7 °F 55.2 °F 30.2 in Calm     66.3% 0 in 57 W/m2
17:04 66 °F 55 °F 30.2 in Calm     67.5% 0 in 55 W/m2
17:09 64.2 °F 53.4 °F 30.2 in Calm     68.3% 0 in 52 W/m2
17:14 64.2 °F 53.6 °F 30.2 in Calm     68.4% 0 in 49 W/m2
17:19 64 °F 53.6 °F 30.2 in Calm     69% 0 in 46 W/m2
17:24 63.7 °F 53.8 °F 30.2 in Calm     70.2% 0 in 44 W/m2
17:29 62.2 °F 52.7 °F 30.2 in Calm     71% 0 in 42 W/m2
17:34 62.2 °F 52.7 °F 30.2 in Calm     71% 0 in 40 W/m2
17:39 62.1 °F 52.9 °F 30.2 in Calm     72% 0 in 37 W/m2
17:44 61.9 °F 53.2 °F 30.2 in Calm     73.6% 0 in 35 W/m2
17:49 61 °F 53.1 °F 30.2 in Calm     75% 0 in 33 W/m2
17:54 61 °F 53.1 °F 30.2 in Calm     75% 0 in 30 W/m2
17:59 61 °F 53.2 °F 30.2 in Calm     75.9% 0 in 28 W/m2
18:04 60.8 °F 52.9 °F 30.2 in Calm     75.1% 0 in 25 W/m2
18:09 60.3 °F 52.7 °F 30.2 in Calm     76% 0 in 23 W/m2
18:14 60.1 °F 52.5 °F 30.2 in Calm     76% 0 in 20 W/m2
18:19 60.1 °F 52.7 °F 30.2 in Calm     76.6% 0 in 17 W/m2
18:24 60.1 °F 52.9 °F 30.2 in Calm     77% 0 in 13 W/m2
18:29 59.4 °F 52 °F 30.2 in Calm     76.3% 0 in 10 W/m2
18:34 59.4 °F 52.2 °F 30.2 in Calm     77% 0 in 7 W/m2
18:39 59.2 °F 52.3 °F 30.2 in Calm     78% 0 in 4 W/m2
18:44 59.2 °F 52.2 °F 30.2 in Calm     77.4% 0 in 0 W/m2
18:49 58.8 °F 51.6 °F 30.2 in Calm     77% 0 in 0 W/m2
18:54 58.8 °F 51.6 °F 30.2 in Calm     77% 0 in 0 W/m2
18:59 58.8 °F 51.6 °F 30.2 in Calm     77% 0 in 0 W/m2
19:04 58.8 °F 51.8 °F 30.2 in Calm     77.4% 0 in 0 W/m2
19:09 58.8 °F 51.8 °F 30.2 in Calm     77.1% 0 in 0 W/m2
19:14 58.8 °F 52 °F 30.2 in Calm     77.9% 0 in 0 W/m2
19:19 58.8 °F 52 °F 30.2 in Calm     78% 0 in 0 W/m2
19:24 58.8 °F 52 °F 30.2 in Calm     78% 0 in 0 W/m2
19:29 58.5 °F 51.6 °F 30.2 in Calm     78% 0 in 0 W/m2
19:34 58.3 °F 51.4 °F 30.2 in Calm     78% 0 in 0 W/m2
19:39 58.3 °F 51.3 °F 30.2 in Calm     77.6% 0 in 0 W/m2
19:44 58.3 °F 50.9 °F 30.2 in Calm     76.6% 0 in 0 W/m2
19:49 59 °F 51.3 °F 30.2 in Calm   2.5 mph 76% 0 in 0 W/m2
19:54 58.8 °F 51.8 °F 30.2 in Calm     77.4% 0 in 0 W/m2
19:59 58.6 °F 51.8 °F 30.2 in Calm     78% 0 in 0 W/m2
20:04 58.6 °F 51.6 °F 30.2 in Calm     77.8% 0 in 0 W/m2
20:09 58.1 °F 51.1 °F 30.2 in Calm     77.9% 0 in 0 W/m2
20:14 57.9 °F 50.7 °F 30.2 in Calm     77.1% 0 in 0 W/m2
20:19 57.9 °F 50.7 °F 30.2 in Calm     77% 0 in 0 W/m2
20:24 57.9 °F 50.7 °F 30.2 in Calm     77% 0 in 0 W/m2
20:29 57.9 °F 50.7 °F 30.2 in Calm     77.4% 0 in 0 W/m2
20:34 57.9 °F 50.7 °F 30.2 in Calm     77.1% 0 in 0 W/m2
20:39 57.9 °F 50.5 °F 30.2 in Calm     76.3% 0 in 0 W/m2
20:44 57.9 °F 50.5 °F 30.2 in Calm     76.4% 0 in 0 W/m2
20:49 58.1 °F 50.9 °F 30.2 in Calm     77% 0 in 0 W/m2
20:54 57.9 °F 50.7 °F 30.2 in Calm     77.1% 0 in 0 W/m2
20:59 58.1 °F 50.7 °F 30.2 in Calm     76.7% 0 in 0 W/m2
21:04 58.1 °F 50.9 °F 30.2 in Calm     77% 0 in 0 W/m2
21:09 58.3 °F 51.3 °F 30.2 in Calm     77.9% 0 in 0 W/m2
21:14 58.1 °F 51.3 °F 30.2 in Calm     77.7% 0 in 0 W/m2
21:19 58.3 °F 51.1 °F 30.2 in Calm     76.8% 0 in 0 W/m2
21:24 58.5 °F 50.7 °F 30.2 in Calm     75.9% 0 in 0 W/m2
21:29 59 °F 51.1 °F 30.2 in Calm     75% 0 in 0 W/m2
21:34 59.4 °F 51.3 °F 30.2 in Calm     74.3% 0 in 0 W/m2
21:39 59.4 °F 50.7 °F 30.2 in Calm     73% 0 in 0 W/m2
21:44 59.5 °F 51.3 °F 30.2 in Calm     74% 0 in 0 W/m2
21:49 59.2 °F 51.1 °F 30.2 in Calm     74.6% 0 in 0 W/m2
21:54 59 °F 50.4 °F 30.2 in Calm     73.1% 0 in 0 W/m2
21:59 59 °F 50.2 °F 30.2 in Calm     72.7% 0 in 0 W/m2
22:04 59.2 °F 49.8 °F 30.2 in Calm     71.2% 0 in 0 W/m2
22:09 59.9 °F 50.5 °F 30.2 in Calm     71.3% 0 in 0 W/m2
22:14 59.9 °F 51.3 °F 30.2 in Calm     73.1% 0 in 0 W/m2
22:19 59.5 °F 51.6 °F 30.2 in Calm     74.8% 0 in 0 W/m2
22:24 59.4 °F 51.4 °F 30.2 in Calm     75.1% 0 in 0 W/m2
22:29 58.3 °F 50.5 °F 30.2 in Calm     75.7% 0 in 0 W/m2
22:34 57.7 °F 50 °F 30.2 in Calm     75.6% 0 in 0 W/m2
22:39 57.9 °F 49.5 °F 30.2 in Calm     73.3% 0 in 0 W/m2
22:44 58.1 °F 49.5 °F 30.2 in Calm     72.7% 0 in 0 W/m2
22:49 58.8 °F 50 °F 30.2 in Calm     72.9% 0 in 0 W/m2
22:54 59 °F 50.5 °F 30.2 in Calm     73.7% 0 in 0 W/m2
22:59 58.8 °F 50.5 °F 30.2 in Calm     74% 0 in 0 W/m2
23:04 58.8 °F 50.2 °F 30.2 in Calm     73% 0 in 0 W/m2
23:09 58.6 °F 50.2 °F 30.2 in Calm     73% 0 in 0 W/m2
23:14 58.6 °F 50.2 °F 30.2 in Calm     73.3% 0 in 0 W/m2
23:19 58.6 °F 50 °F 30.2 in Calm     73% 0 in 0 W/m2
23:24 58.6 °F 50 °F 30.2 in Calm     73% 0 in 0 W/m2
23:29 58.8 °F 50.2 °F 30.2 in Calm     73% 0 in 0 W/m2
23:34 59 °F 50.2 °F 30.2 in Calm     72.7% 0 in 0 W/m2
23:39 58.8 °F 50.5 °F 30.2 in Calm     73.6% 0 in 0 W/m2
23:44 58.6 °F 50.9 °F 30.2 in Calm     75.3% 0 in 0 W/m2
23:49 58.3 °F 50.5 °F 30.2 in Calm     75.3% 0 in 0 W/m2
23:54 57.7 °F 50 °F 30.2 in Calm   2.5 mph 75.5% 0 in 0 W/m2
23:59 57.9 °F 50 °F 30.2 in WSW 0.1 mph 2.5 mph 75% 0 in 0 W/m2
Juneau County Weather
Compliments of Weather Underground - 2 mb